Warren, OH (44481)

1:45 PM EST on December 10, 2016 (GMT -0500)
Northwest Warren | | Change Station

Elev 915 ft 41.25 °N, 80.85 °W | Updated 6 seconds ago

Overcast
Overcast
29.3 °F
Feels Like 29 °F
N
0.4
Wind Variable Wind from SE
Gusts 2.5 mph

Today
High -- | Low -- °F
--% Chance of Precip.
Yesterday
High -- | Low -- °F
Precip. -- in
Pressure 30.45 in
Visibility 10.0 miles
Clouds Mostly Cloudy 3000 ft
Mostly Cloudy 6000 ft
Mostly Cloudy 22000 ft
Windchill 29 °F
Dew Point 11 °F
Humidity 46%
Rainfall 0.00 in
Snow Depth Not available.
7:38 AM 4:54 PM
Waxing Gibbous, 85% visible
METAR KYNG 101751Z 24011G19KT 10SM BKN030 BKN060 BKN220 M03/M09 A3040 RMK AO2 SLP310 T10281094 11022 21050 58010
Pressure 30.45 in
Visibility 10.0 miles
Clouds Mostly Cloudy 3000 ft
Mostly Cloudy 6000 ft
Mostly Cloudy 22000 ft
Windchill 29 °F
Dew Point 11 °F
Humidity 46%
Rainfall 0.00 in
Snow Depth Not available.
7:38 AM 4:54 PM
Waxing Gibbous, 85% visible
METAR KYNG 101751Z 24011G19KT 10SM BKN030 BKN060 BKN220 M03/M09 A3040 RMK AO2 SLP310 T10281094 11022 21050 58010

10-Day Weather Forecast

Almanac

Astronomy

Dec. 10, 2016 Rise Set
Actual Time
Civil Twilight
Nautical Twilight
Astronomical Twilight
Moon
Length of Visible Light
Length of Day
Tomorrow will be .
, % of the Moon is Illuminated

Today's Extremes

State Highs State Lows

Community

WunderPhotos

Upload Photos

1,956,620 photos uploaded!

WunderBlog® & News

Nearby

Air Quality

  Air Quality AQ Index Pollutant
Not available.

Snow Depth

Station Depth Elevation

Earthquake Activity

City Distance Mag. Time & Date
Minimum magnitude displayed is 2.5.

Coastal Water Temperatures

Place Temperature

Stations

Nearby Weather Stations

Station Location Temp. Windchill Dew Point Humidity Wind Precip. Elev Updated Type
                   

Watches & Warnings

There are currently no watches in effect.